createdAt,value
2023-04-20T00:00:10.168Z,94116.34
2023-04-20T00:02:40.390Z,94130.41
2023-04-20T00:05:08.329Z,94121.88
2023-04-20T00:07:35.857Z,94119.75
2023-04-20T00:10:07.159Z,94121.84
2023-04-20T00:12:33.862Z,94102.06
2023-04-20T00:15:00.518Z,94089.84
2023-04-20T00:17:27.386Z,94099.94
2023-04-20T00:19:54.206Z,94092.13
2023-04-20T00:22:21.154Z,94086.59
2023-04-20T00:24:47.811Z,94085.25
2023-04-20T00:27:14.519Z,94092.16
2023-04-20T00:29:41.167Z,94092.91
2023-04-20T00:32:07.920Z,94077.06
2023-04-20T00:34:34.932Z,94073.56
2023-04-20T00:37:01.744Z,94077.72
2023-04-20T00:39:28.478Z,94075.03
2023-04-20T00:41:55.254Z,94073.41
2023-04-20T00:44:21.916Z,94077.13
2023-04-20T00:46:48.623Z,94057.13
2023-04-20T00:49:15.600Z,94056.53
2023-04-20T00:51:43.054Z,94053.31
2023-04-20T00:54:09.725Z,94044.31
2023-04-20T00:56:38.409Z,94051.19
2023-04-20T00:59:08.155Z,94038.06
2023-04-20T01:01:35.064Z,94040.38
2023-04-20T01:04:01.926Z,94046.47
2023-04-20T01:06:29.366Z,94037.44
2023-04-20T01:08:57.250Z,94033.97
2023-04-20T01:11:23.908Z,94039.78
2023-04-20T01:13:50.803Z,94035.31
2023-04-20T01:16:17.602Z,94027.38
2023-04-20T01:18:47.364Z,94027.91
2023-04-20T01:21:16.629Z,94026.31
2023-04-20T01:23:43.860Z,94026.81
2023-04-20T01:26:13.531Z,94022.16
2023-04-20T01:28:40.300Z,94018.25
2023-04-20T01:31:09.300Z,94009.88
2023-04-20T01:33:36.811Z,94012.69
2023-04-20T01:36:04.969Z,94012.13
2023-04-20T01:38:34.587Z,94002.63
2023-04-20T01:41:04.427Z,93999.13
2023-04-20T01:43:31.513Z,93996.75
2023-04-20T01:45:59.794Z,93995.31
2023-04-20T01:48:26.732Z,93988.56
2023-04-20T01:50:53.938Z,93988.59
2023-04-20T01:53:20.897Z,93965.50
2023-04-20T01:55:51.325Z,93960.16
2023-04-20T01:58:18.022Z,93983.25
2023-04-20T02:00:44.997Z,93979.69
2023-04-20T02:03:11.914Z,93976.34
2023-04-20T02:05:38.866Z,93963.63
2023-04-20T02:08:05.698Z,93966.94
2023-04-20T02:10:32.435Z,93964.81
2023-04-20T02:12:59.099Z,93967.56
2023-04-20T02:15:25.810Z,93960.03
2023-04-20T02:17:52.629Z,93960.38
2023-04-20T02:20:20.103Z,93951.41
2023-04-20T02:22:46.960Z,93957.78
2023-04-20T02:25:15.027Z,93964.63
2023-04-20T02:27:42.239Z,93947.75
2023-04-20T02:30:11.833Z,93949.41
2023-04-20T02:32:38.967Z,93945.22
2023-04-20T02:35:05.998Z,93946.50
2023-04-20T02:37:32.736Z,93948.97
2023-04-20T02:39:59.433Z,93948.75
2023-04-20T02:42:27.263Z,93939.44
2023-04-20T02:44:56.151Z,93934.09
2023-04-20T02:47:22.877Z,93943.19
2023-04-20T02:49:52.006Z,93926.41
2023-04-20T02:52:19.026Z,93931.41
2023-04-20T02:54:46.240Z,93931.13
2023-04-20T02:57:13.508Z,93926.91
2023-04-20T02:59:40.686Z,93920.75
2023-04-20T03:02:24.935Z,93929.81
2023-04-20T03:04:53.276Z,93897.38
2023-04-20T03:07:21.213Z,93922.34
2023-04-20T03:09:48.778Z,93920.84
2023-04-20T03:12:22.360Z,93918.47
2023-04-20T03:14:59.049Z,93907.84
2023-04-20T03:17:40.396Z,93913.53
2023-04-20T03:20:09.185Z,93897.47
2023-04-20T03:22:36.412Z,93910.88
2023-04-20T03:25:03.134Z,93915.19
2023-04-20T03:27:48.309Z,93917.13
2023-04-20T03:30:16.128Z,93911.88
2023-04-20T03:32:45.541Z,93894.31
2023-04-20T03:35:12.213Z,93894.03
2023-04-20T03:37:40.038Z,93890.81
2023-04-20T03:40:09.437Z,93888.75
2023-04-20T03:42:37.284Z,93897.19
2023-04-20T03:45:06.635Z,93897.97
2023-04-20T03:47:33.420Z,93893.47
2023-04-20T03:50:00.289Z,93873.78
2023-04-20T03:52:27.024Z,93894.25
2023-04-20T03:54:53.737Z,93886.88
2023-04-20T03:57:20.483Z,93897.97
2023-04-20T03:59:47.501Z,93891.66
2023-04-20T04:02:18.328Z,93898.44
2023-04-20T04:04:46.896Z,93891.16
2023-04-20T04:07:13.697Z,93891.19
2023-04-20T04:09:41.961Z,93889.19
2023-04-20T04:12:09.553Z,93883.34
2023-04-20T04:14:36.330Z,93886.22
2023-04-20T04:17:03.928Z,93886.38
2023-04-20T04:19:33.113Z,93888.94
2023-04-20T04:22:00.641Z,93890.25
2023-04-20T04:24:28.122Z,93888.94
2023-04-20T04:27:06.110Z,93896.53
2023-04-20T04:29:38.698Z,93895.66
2023-04-20T04:32:09.670Z,93880.75
2023-04-20T04:34:37.760Z,93890.97
2023-04-20T04:37:04.758Z,93881.75
2023-04-20T04:39:47.426Z,93884.34
2023-04-20T04:42:22.597Z,93879.56
2023-04-20T04:44:49.442Z,93878.50
2023-04-20T04:47:23.632Z,93884.97
2023-04-20T04:49:51.675Z,93884.91
2023-04-20T04:52:18.277Z,93882.16
2023-04-20T04:54:45.248Z,93885.25
2023-04-20T04:57:11.896Z,93890.47
2023-04-20T04:59:38.579Z,93888.84
2023-04-20T05:02:05.251Z,93876.25
2023-04-20T05:04:32.226Z,93886.53
2023-04-20T05:06:59.073Z,93874.66
2023-04-20T05:09:26.616Z,93889.06
2023-04-20T05:11:53.237Z,93879.34
2023-04-20T05:14:19.897Z,93882.78
2023-04-20T05:16:46.531Z,93892.78
2023-04-20T05:19:13.219Z,93885.09
2023-04-20T05:21:39.836Z,93887.34
2023-04-20T05:24:07.329Z,93888.50
2023-04-20T05:26:33.901Z,93890.59
2023-04-20T05:29:00.624Z,93888.84
2023-04-20T05:31:27.528Z,93899.69
2023-04-20T05:33:54.295Z,93895.16
2023-04-20T05:36:20.978Z,93893.56
2023-04-20T05:38:47.661Z,93895.25
2023-04-20T05:41:14.302Z,93888.38
2023-04-20T05:43:41.123Z,93884.97
2023-04-20T05:46:07.823Z,93886.16
2023-04-20T05:48:34.506Z,93886.50
2023-04-20T05:51:01.103Z,93883.59
2023-04-20T05:53:27.913Z,93881.91
2023-04-20T05:55:54.504Z,93883.63
2023-04-20T05:58:21.173Z,93891.59
2023-04-20T06:00:47.852Z,93887.31
2023-04-20T06:03:14.711Z,93888.91
2023-04-20T06:05:41.685Z,93887.56
2023-04-20T06:08:08.431Z,93887.22
2023-04-20T06:10:35.219Z,93885.34
2023-04-20T06:13:01.944Z,93889.84
2023-04-20T06:15:28.634Z,93888.22
2023-04-20T06:17:55.382Z,93883.50
2023-04-20T06:20:22.464Z,93889.78
2023-04-20T06:22:49.388Z,93883.13
2023-04-20T06:25:16.126Z,93880.69
2023-04-20T06:27:43.051Z,93877.41
2023-04-20T06:30:10.696Z,93881.47
2023-04-20T06:32:38.104Z,93880.50
2023-04-20T06:35:06.350Z,93878.75
2023-04-20T06:37:33.193Z,93879.19
2023-04-20T06:40:00.047Z,93876.75
2023-04-20T06:42:27.239Z,93868.09
2023-04-20T06:44:56.896Z,93863.09
2023-04-20T06:47:23.706Z,93869.94
2023-04-20T06:49:50.409Z,93872.81
2023-04-20T06:52:17.088Z,93879.09
2023-04-20T06:54:43.699Z,93879.00
2023-04-20T06:57:10.390Z,93875.06
2023-04-20T06:59:37.002Z,93885.88
2023-04-20T07:02:03.880Z,93879.44
2023-04-20T07:04:30.710Z,93873.66
2023-04-20T07:06:57.436Z,93879.44
2023-04-20T07:09:24.853Z,93877.78
2023-04-20T07:11:51.458Z,93873.00
2023-04-20T07:14:18.253Z,93867.69
2023-04-20T07:16:44.921Z,93872.72
2023-04-20T07:19:11.602Z,93878.06
2023-04-20T07:21:38.275Z,93876.56
2023-04-20T07:24:05.966Z,93874.50
2023-04-20T07:26:32.628Z,93873.34
2023-04-20T07:28:59.500Z,93878.50
2023-04-20T07:31:26.208Z,93871.81
2023-04-20T07:33:52.946Z,93873.38
2023-04-20T07:36:21.607Z,93875.47
2023-04-20T07:38:49.558Z,93881.34
2023-04-20T07:41:16.311Z,93881.34
2023-04-20T07:43:44.592Z,93879.69
2023-04-20T07:46:20.094Z,93882.81
2023-04-20T07:48:46.997Z,93878.75
2023-04-20T07:51:13.617Z,93885.91
2023-04-20T07:53:40.338Z,93890.63
2023-04-20T07:56:07.200Z,93893.47
2023-04-20T07:58:34.997Z,93890.50
2023-04-20T08:01:01.703Z,93888.78
2023-04-20T08:03:29.157Z,93885.06
2023-04-20T08:05:56.114Z,93894.56
2023-04-20T08:08:22.834Z,93888.97
2023-04-20T08:10:49.456Z,93894.28
2023-04-20T08:13:16.088Z,93883.09
2023-04-20T08:15:42.922Z,93884.09
2023-04-20T08:18:11.363Z,93876.44
2023-04-20T08:20:38.033Z,93877.09
2023-04-20T08:23:04.678Z,93877.53
2023-04-20T08:25:32.486Z,93871.44
2023-04-20T08:27:59.149Z,93875.25
2023-04-20T08:30:27.105Z,93879.75
2023-04-20T08:32:53.893Z,93871.13
2023-04-20T08:35:20.574Z,93871.13
2023-04-20T08:37:47.223Z,93867.09
2023-04-20T08:40:13.952Z,93869.84
2023-04-20T08:42:40.646Z,93862.19
2023-04-20T08:45:07.787Z,93871.81
2023-04-20T08:47:35.903Z,93863.69
2023-04-20T08:50:04.361Z,93859.75
2023-04-20T08:52:32.644Z,93851.44
2023-04-20T08:54:59.306Z,93853.38
2023-04-20T08:57:26.319Z,93854.47
2023-04-20T08:59:53.376Z,93851.09
2023-04-20T09:02:20.360Z,93849.63
2023-04-20T09:04:49.369Z,93852.97
2023-04-20T09:07:21.206Z,93858.06
2023-04-20T09:09:55.366Z,93854.34
2023-04-20T09:12:22.994Z,93853.56
2023-04-20T09:14:49.825Z,93854.06
2023-04-20T09:17:18.008Z,93852.59
2023-04-20T09:19:45.906Z,93850.41
2023-04-20T09:22:13.020Z,93850.22
2023-04-20T09:24:41.350Z,93844.78
2023-04-20T09:27:18.695Z,93845.28
2023-04-20T09:29:58.909Z,93836.34
2023-04-20T09:32:28.665Z,93837.31
2023-04-20T09:34:56.278Z,93844.28
2023-04-20T09:37:23.170Z,93834.94
2023-04-20T09:39:50.364Z,93836.34
2023-04-20T09:42:17.845Z,93831.22
2023-04-20T09:44:44.748Z,93840.38
2023-04-20T09:47:18.987Z,93827.69
2023-04-20T09:49:49.091Z,93827.59
2023-04-20T09:52:21.103Z,93826.59
2023-04-20T09:54:47.811Z,93823.97
2023-04-20T09:57:15.046Z,93813.25
2023-04-20T09:59:47.126Z,93813.88
2023-04-20T10:02:14.452Z,93808.97
2023-04-20T10:04:58.066Z,93805.91
2023-04-20T10:07:31.723Z,93811.41
2023-04-20T10:10:12.462Z,93819.91
2023-04-20T10:12:53.857Z,93822.56
2023-04-20T10:15:24.346Z,93819.00
2023-04-20T10:17:51.597Z,93811.41
2023-04-20T10:20:26.790Z,93818.09
2023-04-20T10:22:55.161Z,93811.81
2023-04-20T10:25:27.432Z,93813.88
2023-04-20T10:27:54.836Z,93819.97
2023-04-20T10:30:22.384Z,93814.59
2023-04-20T10:32:49.222Z,93819.91
2023-04-20T10:35:16.282Z,93823.63
2023-04-20T10:37:52.316Z,93816.28
2023-04-20T10:40:29.323Z,93824.41
2023-04-20T10:42:55.998Z,93812.97
2023-04-20T10:45:34.276Z,93814.09
2023-04-20T10:48:10.373Z,93822.44
2023-04-20T10:50:37.356Z,93818.09
2023-04-20T10:53:04.725Z,93802.97
2023-04-20T10:55:31.582Z,93807.81
2023-04-20T10:57:58.281Z,93806.22
2023-04-20T11:00:28.013Z,93793.13
2023-04-20T11:02:56.736Z,93793.91
2023-04-20T11:05:27.785Z,93783.28
2023-04-20T11:07:58.680Z,93791.84
2023-04-20T11:10:38.151Z,93799.81
2023-04-20T11:13:04.826Z,93796.00
2023-04-20T11:15:35.328Z,93791.78
2023-04-20T11:18:12.279Z,93775.56
2023-04-20T11:20:53.502Z,93786.06
2023-04-20T11:23:21.683Z,93779.97
2023-04-20T11:25:52.962Z,93780.31
2023-04-20T11:28:19.805Z,93772.53
2023-04-20T11:30:47.066Z,93761.44
2023-04-20T11:33:14.315Z,93772.06
2023-04-20T11:35:42.618Z,93781.41
2023-04-20T11:38:09.593Z,93773.09
2023-04-20T11:40:36.521Z,93789.00
2023-04-20T11:43:04.808Z,93775.25
2023-04-20T11:45:36.804Z,93778.88
2023-04-20T11:48:05.126Z,93767.59
2023-04-20T11:50:31.809Z,93767.88
2023-04-20T11:52:58.486Z,93773.56
2023-04-20T11:55:25.193Z,93777.31
2023-04-20T11:57:51.917Z,93770.91
2023-04-20T12:00:19.371Z,93782.00
2023-04-20T12:02:47.964Z,93774.47
2023-04-20T12:05:15.258Z,93784.66
2023-04-20T12:07:42.118Z,93786.25
2023-04-20T12:10:09.301Z,93792.16
2023-04-20T12:12:36.929Z,93787.81
2023-04-20T12:15:03.784Z,93780.94
2023-04-20T12:17:30.514Z,93783.47
2023-04-20T12:19:57.928Z,93770.50
2023-04-20T12:22:24.649Z,93779.38
2023-04-20T12:24:51.295Z,93779.38
2023-04-20T12:27:18.005Z,93766.81
2023-04-20T12:29:44.647Z,93780.97
2023-04-20T12:32:11.480Z,93764.25
2023-04-20T12:34:38.078Z,93767.56
2023-04-20T12:37:04.746Z,93762.69
2023-04-20T12:39:31.363Z,93760.38
2023-04-20T12:41:58.266Z,93768.25
2023-04-20T12:44:24.912Z,93766.13
2023-04-20T12:46:51.590Z,93770.94
2023-04-20T12:49:18.529Z,93768.94
2023-04-20T12:51:45.541Z,93771.72
2023-04-20T12:54:12.156Z,93770.50
2023-04-20T12:56:38.892Z,93770.03
2023-04-20T12:59:05.649Z,93740.81
2023-04-20T13:01:32.443Z,93763.84
2023-04-20T13:03:59.205Z,93767.38
2023-04-20T13:06:27.001Z,93766.19
2023-04-20T13:08:53.905Z,93765.53
2023-04-20T13:11:20.525Z,93765.53
2023-04-20T13:13:47.181Z,93753.09
2023-04-20T13:16:14.357Z,93752.34
2023-04-20T13:18:41.146Z,93755.81
2023-04-20T13:21:08.384Z,93763.34
2023-04-20T13:23:35.120Z,93760.28
2023-04-20T13:26:01.869Z,93781.28
2023-04-20T13:28:28.588Z,93767.06
2023-04-20T13:30:57.549Z,93771.81
2023-04-20T13:33:24.352Z,93764.75
2023-04-20T13:35:51.515Z,93761.69
2023-04-20T13:38:18.419Z,93767.78
2023-04-20T13:40:46.801Z,93761.25
2023-04-20T13:43:13.705Z,93770.03
2023-04-20T13:45:40.459Z,93752.41
2023-04-20T13:48:07.421Z,93768.25
2023-04-20T13:50:34.189Z,93755.75
2023-04-20T13:53:03.214Z,93748.44
2023-04-20T13:55:31.163Z,93752.66
2023-04-20T13:57:57.887Z,93764.22
2023-04-20T14:00:26.106Z,93754.66
2023-04-20T14:02:52.989Z,93745.72
2023-04-20T14:05:19.730Z,93751.94
2023-04-20T14:07:46.452Z,93745.19
2023-04-20T14:10:13.136Z,93753.78
2023-04-20T14:12:40.132Z,93744.53
2023-04-20T14:15:07.212Z,93740.13
2023-04-20T14:17:33.927Z,93726.97
2023-04-20T14:20:00.704Z,93734.03
2023-04-20T14:22:34.091Z,93732.84
2023-04-20T14:25:00.760Z,93715.66
2023-04-20T14:27:27.412Z,93716.59
2023-04-20T14:29:54.001Z,93705.84
2023-04-20T14:32:20.681Z,93702.69
2023-04-20T14:34:47.316Z,93726.59
2023-04-20T14:37:13.953Z,93716.59
2023-04-20T14:39:40.648Z,93713.19
2023-04-20T14:42:07.781Z,93716.16
2023-04-20T14:44:34.459Z,93730.69
2023-04-20T14:47:02.137Z,93728.78
2023-04-20T14:49:29.008Z,93736.78
2023-04-20T14:51:55.727Z,93737.28
2023-04-20T14:54:22.448Z,93741.00
2023-04-20T14:56:49.098Z,93746.75
2023-04-20T14:59:15.738Z,93744.53
2023-04-20T15:01:54.905Z,93746.91
2023-04-20T15:04:28.198Z,93758.00
2023-04-20T15:06:55.088Z,93768.13
2023-04-20T15:09:21.748Z,93767.34
2023-04-20T15:11:48.393Z,93773.25
2023-04-20T15:14:15.508Z,93771.22
2023-04-20T15:16:42.849Z,93754.72
2023-04-20T15:19:09.946Z,93766.81
2023-04-20T15:21:37.129Z,93773.09
2023-04-20T15:24:04.105Z,93761.16
2023-04-20T15:26:31.231Z,93768.97
2023-04-20T15:28:58.505Z,93753.19
2023-04-20T15:31:26.042Z,93745.69
2023-04-20T15:33:52.736Z,93766.28
2023-04-20T15:36:20.519Z,93765.97
2023-04-20T15:38:47.123Z,93771.88
2023-04-20T15:41:13.779Z,93770.78
2023-04-20T15:43:40.477Z,93758.72
2023-04-20T15:46:07.906Z,93760.19
2023-04-20T15:48:34.804Z,93747.97
2023-04-20T15:51:01.509Z,93750.63
2023-04-20T15:53:28.326Z,93754.38
2023-04-20T15:55:55.074Z,93757.53
2023-04-20T15:58:22.133Z,93750.50
2023-04-20T16:00:48.814Z,93748.63
2023-04-20T16:03:15.948Z,93726.56
2023-04-20T16:05:42.748Z,93743.50
2023-04-20T16:08:09.455Z,93746.63
2023-04-20T16:10:36.104Z,93736.28
2023-04-20T16:13:03.825Z,93738.06
2023-04-20T16:15:30.747Z,93724.78
2023-04-20T16:17:58.763Z,93733.28
2023-04-20T16:20:25.455Z,93736.88
2023-04-20T16:22:52.226Z,93736.72
2023-04-20T16:25:23.224Z,93737.34
2023-04-20T16:27:51.614Z,93730.94
2023-04-20T16:30:18.845Z,93727.88
2023-04-20T16:32:45.829Z,93722.97
2023-04-20T16:35:12.593Z,93728.94
2023-04-20T16:37:39.273Z,93733.97
2023-04-20T16:40:06.840Z,93742.91
2023-04-20T16:42:34.330Z,93739.94
2023-04-20T16:45:01.279Z,93731.66
2023-04-20T16:47:28.091Z,93722.72
2023-04-20T16:49:54.725Z,93729.44
2023-04-20T16:52:21.610Z,93736.31
2023-04-20T16:54:48.216Z,93744.28
2023-04-20T16:57:15.010Z,93750.88
2023-04-20T16:59:42.555Z,93747.13
2023-04-20T17:02:10.322Z,93753.03
2023-04-20T17:04:37.076Z,93758.84
2023-04-20T17:07:04.077Z,93768.06
2023-04-20T17:09:30.667Z,93771.22
2023-04-20T17:11:59.382Z,93772.75
2023-04-20T17:14:26.076Z,93772.28
2023-04-20T17:16:54.410Z,93776.16
2023-04-20T17:19:21.117Z,93778.81
2023-04-20T17:21:47.829Z,93792.78
2023-04-20T17:24:14.583Z,93801.97
2023-04-20T17:26:41.406Z,93803.25
2023-04-20T17:29:08.059Z,93803.13
2023-04-20T17:31:34.790Z,93805.00
2023-04-20T17:34:01.493Z,93812.31
2023-04-20T17:36:28.271Z,93823.13
2023-04-20T17:38:55.020Z,93822.31
2023-04-20T17:41:21.919Z,93839.38
2023-04-20T17:43:50.838Z,93851.84
2023-04-20T17:46:17.596Z,93850.44
2023-04-20T17:48:44.432Z,93863.44
2023-04-20T17:51:13.798Z,93857.78
2023-04-20T17:53:40.614Z,93859.34
2023-04-20T17:56:07.566Z,93850.78
2023-04-20T17:58:34.399Z,93849.19
2023-04-20T18:01:01.183Z,93858.63
2023-04-20T18:03:28.572Z,93847.94
2023-04-20T18:05:55.351Z,93858.16
2023-04-20T18:08:23.334Z,93862.97
2023-04-20T18:10:50.085Z,93868.41
2023-04-20T18:13:16.810Z,93874.50
2023-04-20T18:15:43.763Z,93873.72
2023-04-20T18:18:10.491Z,93867.16
2023-04-20T18:20:37.265Z,93874.22
2023-04-20T18:23:04.011Z,93883.75
2023-04-20T18:25:30.737Z,93881.41
2023-04-20T18:27:57.337Z,93879.66
2023-04-20T18:30:24.036Z,93875.00
2023-04-20T18:32:50.731Z,93874.84
2023-04-20T18:35:19.340Z,93880.78
2023-04-20T18:37:46.023Z,93885.31
2023-04-20T18:40:15.428Z,93882.19
2023-04-20T18:42:42.879Z,93882.47
2023-04-20T18:45:10.022Z,93884.84
2023-04-20T18:47:36.774Z,93875.94
2023-04-20T18:50:03.661Z,93872.31
2023-04-20T18:52:33.985Z,93880.16
2023-04-20T18:55:01.421Z,93858.34
2023-04-20T18:57:28.887Z,93884.22
2023-04-20T18:59:56.444Z,93876.38
2023-04-20T19:02:23.459Z,93876.72
2023-04-20T19:04:51.137Z,93878.91
2023-04-20T19:07:18.627Z,93875.66
2023-04-20T19:09:45.322Z,93878.00
2023-04-20T19:12:12.234Z,93871.91
2023-04-20T19:14:38.935Z,93876.25
2023-04-20T19:17:07.345Z,93882.06
2023-04-20T19:19:34.212Z,93891.00
2023-04-20T19:22:01.160Z,93876.25
2023-04-20T19:24:27.895Z,93883.34
2023-04-20T19:26:54.648Z,93890.22
2023-04-20T19:29:21.416Z,93897.88
2023-04-20T19:31:48.107Z,93883.94
2023-04-20T19:34:15.285Z,93880.19
2023-04-20T19:36:42.296Z,93888.81
2023-04-20T19:39:09.936Z,93868.78
2023-04-20T19:41:36.781Z,93880.50
2023-04-20T19:44:06.524Z,93885.81
2023-04-20T19:46:33.890Z,93889.25
2023-04-20T19:49:01.409Z,93889.56
2023-04-20T19:51:28.144Z,93880.50
2023-04-20T19:53:54.761Z,93885.81
2023-04-20T19:56:21.488Z,93888.16
2023-04-20T19:58:48.216Z,93867.63
2023-04-20T20:01:15.078Z,93870.66
2023-04-20T20:03:43.080Z,93877.53
2023-04-20T20:06:10.043Z,93881.56
2023-04-20T20:08:36.819Z,93865.75
2023-04-20T20:11:04.052Z,93871.72
2023-04-20T20:13:30.690Z,93872.81
2023-04-20T20:15:58.821Z,93863.88
2023-04-20T20:18:25.928Z,93874.34
2023-04-20T20:20:52.638Z,93869.47
2023-04-20T20:23:19.303Z,93874.00
2023-04-20T20:25:46.193Z,93879.59
2023-04-20T20:28:12.905Z,93882.75
2023-04-20T20:30:41.561Z,93881.78
2023-04-20T20:33:08.186Z,93880.69
2023-04-20T20:35:35.043Z,93881.28
2023-04-20T20:38:01.703Z,93880.63
2023-04-20T20:40:28.356Z,93887.00
2023-04-20T20:42:55.047Z,93885.47
2023-04-20T20:45:22.047Z,93885.22
2023-04-20T20:47:49.182Z,93880.88
2023-04-20T20:50:16.540Z,93871.16
2023-04-20T20:52:43.181Z,93860.34
2023-04-20T20:55:10.497Z,93874.84
2023-04-20T20:57:37.242Z,93872.63
2023-04-20T21:00:09.896Z,93871.06
2023-04-20T21:02:40.059Z,93854.78
2023-04-20T21:05:07.322Z,93855.28
2023-04-20T21:07:33.975Z,93855.38
2023-04-20T21:10:00.802Z,93859.31
2023-04-20T21:12:27.564Z,93861.84
2023-04-20T21:14:54.275Z,93864.34
2023-04-20T21:17:20.988Z,93874.22
2023-04-20T21:19:47.618Z,93879.81
2023-04-20T21:22:14.352Z,93879.81
2023-04-20T21:24:41.195Z,93856.97
2023-04-20T21:27:07.951Z,93867.00
2023-04-20T21:29:34.609Z,93849.28
2023-04-20T21:32:01.391Z,93834.91
2023-04-20T21:34:28.313Z,93832.44
2023-04-20T21:36:55.066Z,93832.78
2023-04-20T21:39:21.800Z,93831.69
2023-04-20T21:41:48.597Z,93820.00
2023-04-20T21:44:15.369Z,93838.38
2023-04-20T21:46:42.188Z,93827.72
2023-04-20T21:49:08.876Z,93835.59
2023-04-20T21:51:35.818Z,93835.88
2023-04-20T21:54:02.487Z,93844.94
2023-04-20T21:56:29.124Z,93842.72
2023-04-20T21:58:55.744Z,93845.66
2023-04-20T22:01:22.595Z,93821.88
2023-04-20T22:03:49.514Z,93829.72
2023-04-20T22:06:16.404Z,93828.56
2023-04-20T22:08:43.296Z,93830.00
2023-04-20T22:11:10.210Z,93831.56
2023-04-20T22:13:37.305Z,93817.66
2023-04-20T22:16:04.415Z,93817.31
2023-04-20T22:18:31.222Z,93818.69
2023-04-20T22:20:58.127Z,93839.53
2023-04-20T22:23:24.752Z,93845.28
2023-04-20T22:25:51.380Z,93849.38
2023-04-20T22:28:18.064Z,93857.19
2023-04-20T22:30:44.767Z,93854.41
2023-04-20T22:33:11.486Z,93852.25
2023-04-20T22:35:38.296Z,93868.19
2023-04-20T22:38:05.072Z,93872.41
2023-04-20T22:40:31.841Z,93875.38
2023-04-20T22:42:58.514Z,93876.88
2023-04-20T22:45:25.485Z,93878.03
2023-04-20T22:47:52.322Z,93869.88
2023-04-20T22:50:19.060Z,93871.94
2023-04-20T22:52:46.210Z,93866.72
2023-04-20T22:55:12.922Z,93866.44
2023-04-20T22:57:39.659Z,93869.88
2023-04-20T23:00:10.669Z,93871.81
2023-04-20T23:02:38.120Z,93871.22
2023-04-20T23:05:05.810Z,93864.44
2023-04-20T23:07:33.458Z,93869.47
2023-04-20T23:10:01.597Z,93883.53
2023-04-20T23:12:29.622Z,93874.69
2023-04-20T23:14:56.831Z,93871.84
2023-04-20T23:17:23.615Z,93868.38
2023-04-20T23:19:51.043Z,93881.34
2023-04-20T23:22:17.884Z,93878.03
2023-04-20T23:24:44.853Z,93867.41
2023-04-20T23:27:11.492Z,93875.56
2023-04-20T23:29:38.110Z,93882.56
2023-04-20T23:32:05.144Z,93884.41
2023-04-20T23:34:31.849Z,93871.25
2023-04-20T23:36:58.602Z,93882.97
2023-04-20T23:39:25.355Z,93883.16
2023-04-20T23:41:52.000Z,93871.41
2023-04-20T23:44:18.643Z,93878.78
2023-04-20T23:46:46.388Z,93853.56
2023-04-20T23:49:13.293Z,93878.19
2023-04-20T23:51:40.273Z,93888.72
2023-04-20T23:54:06.910Z,93889.09
2023-04-20T23:56:33.561Z,93892.84
2023-04-20T23:59:00.243Z,93893.25
